createdAt,value
2018-03-20T00:00:23.928Z,15.75
2018-03-20T00:02:57.001Z,13.50
2018-03-20T00:05:27.978Z,13.50
2018-03-20T00:07:59.154Z,11.50
2018-03-20T00:13:09.636Z,13.50
2018-03-20T00:15:42.122Z,15.00
2018-03-20T00:18:13.287Z,14.50
2018-03-20T00:20:44.417Z,13.50
2018-03-20T00:23:15.510Z,14.00
2018-03-20T00:25:47.098Z,13.50
2018-03-20T00:28:17.988Z,13.00
2018-03-20T00:30:49.716Z,13.50
2018-03-20T00:33:21.705Z,15.00
2018-03-20T00:35:52.923Z,17.00
2018-03-20T00:38:24.125Z,15.50
2018-03-20T00:40:55.296Z,15.00
2018-03-20T00:43:26.379Z,17.00
2018-03-20T00:45:58.439Z,13.50
2018-03-20T00:48:29.592Z,17.00
2018-03-20T00:51:00.778Z,17.00
2018-03-20T00:53:32.693Z,15.50
2018-03-20T00:56:03.970Z,17.00
2018-03-20T00:58:35.536Z,14.50
2018-03-20T01:01:22.500Z,14.00
2018-03-20T01:03:54.146Z,15.00
2018-03-20T01:06:25.793Z,16.00
2018-03-20T01:08:57.155Z,16.50
2018-03-20T01:11:28.279Z,15.25
2018-03-20T01:13:59.560Z,14.75
2018-03-20T01:16:34.231Z,13.75
2018-03-20T01:19:06.121Z,17.75
2018-03-20T01:21:37.659Z,18.25
2018-03-20T01:24:09.532Z,17.00
2018-03-20T01:26:41.173Z,15.00
2018-03-20T01:29:12.431Z,16.50
2018-03-20T01:31:44.507Z,17.25
2018-03-20T01:34:19.742Z,15.75
2018-03-20T01:36:51.340Z,16.00
2018-03-20T01:39:22.929Z,16.50
2018-03-20T01:41:54.757Z,14.00
2018-03-20T01:44:26.410Z,15.00
2018-03-20T01:46:59.085Z,16.00
2018-03-20T01:49:31.158Z,16.00
2018-03-20T01:52:02.678Z,16.00
2018-03-20T01:54:34.820Z,15.50
2018-03-20T01:57:06.286Z,16.00
2018-03-20T01:59:40.960Z,17.50
2018-03-20T02:02:13.085Z,16.50
2018-03-20T02:04:44.448Z,15.50
2018-03-20T02:07:16.169Z,17.75
2018-03-20T02:09:47.979Z,13.75
2018-03-20T02:12:19.585Z,17.25
2018-03-20T02:14:51.631Z,15.75
2018-03-20T02:17:23.648Z,16.75
2018-03-20T02:19:55.230Z,12.75
2018-03-20T02:22:26.403Z,15.75
2018-03-20T02:24:57.642Z,15.75
2018-03-20T02:27:29.232Z,17.25
2018-03-20T02:30:00.438Z,17.00
2018-03-20T02:32:34.573Z,14.00
2018-03-20T02:35:06.476Z,15.00
2018-03-20T02:37:37.886Z,19.00
2018-03-20T02:40:10.668Z,18.50
2018-03-20T02:42:41.831Z,17.50
2018-03-20T02:45:15.656Z,18.00
2018-03-20T02:47:47.556Z,15.50
2018-03-20T02:50:20.233Z,19.00
2018-03-20T02:52:52.955Z,16.50
2018-03-20T02:55:24.245Z,19.25
2018-03-20T02:57:55.408Z,21.00
2018-03-20T03:00:27.434Z,22.75
2018-03-20T03:02:59.850Z,19.00
2018-03-20T03:05:31.164Z,19.50
2018-03-20T03:08:03.017Z,21.50
2018-03-20T03:10:38.395Z,15.00
2018-03-20T03:13:19.093Z,18.50
2018-03-20T03:15:50.540Z,23.00
2018-03-20T03:18:21.734Z,19.00
2018-03-20T03:20:52.586Z,16.25
2018-03-20T03:23:24.647Z,15.00
2018-03-20T03:25:56.178Z,18.00
2018-03-20T03:28:27.657Z,14.00
2018-03-20T03:30:59.366Z,17.00
2018-03-20T03:33:30.771Z,15.00
2018-03-20T03:36:01.677Z,15.50
2018-03-20T03:38:33.124Z,16.00
2018-03-20T03:41:10.527Z,19.25
2018-03-20T03:43:43.132Z,19.00
2018-03-20T03:46:15.076Z,18.00
2018-03-20T03:48:45.731Z,14.00
2018-03-20T03:51:16.709Z,17.50
2018-03-20T03:53:47.857Z,15.50
2018-03-20T03:56:19.241Z,20.00
2018-03-20T03:58:50.421Z,18.50
2018-03-20T04:01:22.169Z,15.00
2018-03-20T04:03:53.283Z,18.50
2018-03-20T04:06:23.956Z,15.75
2018-03-20T04:08:56.093Z,15.75
2018-03-20T04:11:28.238Z,16.25
2018-03-20T04:13:59.058Z,17.00
2018-03-20T04:16:30.727Z,13.00
2018-03-20T04:19:02.418Z,15.00
2018-03-20T04:21:34.062Z,13.00
2018-03-20T04:24:05.212Z,14.50
2018-03-20T04:26:37.218Z,13.00
2018-03-20T04:29:08.099Z,14.00
2018-03-20T04:31:41.160Z,18.50
2018-03-20T04:34:14.553Z,14.00
2018-03-20T04:36:45.463Z,16.00
2018-03-20T04:39:16.297Z,15.00
2018-03-20T04:41:47.470Z,16.50
2018-03-20T04:44:19.390Z,14.00
2018-03-20T04:46:50.287Z,15.00
2018-03-20T04:49:26.069Z,15.00
2018-03-20T04:51:56.926Z,15.50
2018-03-20T04:54:30.550Z,16.00
2018-03-20T04:57:04.969Z,15.50
2018-03-20T04:59:37.841Z,15.50
2018-03-20T05:02:09.162Z,16.50
2018-03-20T05:04:39.975Z,16.50
2018-03-20T05:07:10.602Z,16.00
2018-03-20T05:09:42.080Z,18.50
2018-03-20T05:12:13.257Z,13.00
2018-03-20T05:14:44.536Z,17.00
2018-03-20T05:17:17.520Z,15.50
2018-03-20T05:19:48.804Z,18.50
2018-03-20T05:22:20.099Z,16.50
2018-03-20T05:24:51.329Z,15.50
2018-03-20T05:27:22.662Z,21.25
2018-03-20T05:33:04.374Z,19.25
2018-03-20T05:35:35.798Z,14.25
2018-03-20T05:38:07.276Z,17.50
2018-03-20T05:40:40.197Z,18.00
2018-03-20T05:43:11.620Z,14.50
2018-03-20T05:45:45.238Z,16.50
2018-03-20T05:48:17.191Z,17.50
2018-03-20T05:50:48.607Z,16.75
2018-03-20T05:53:21.487Z,21.50
2018-03-20T05:55:54.960Z,17.00
2018-03-20T05:58:26.066Z,23.00
2018-03-20T06:00:58.514Z,21.00
2018-03-20T06:03:30.039Z,19.50
2018-03-20T06:06:01.263Z,23.25
2018-03-20T06:08:32.625Z,21.75
2018-03-20T06:11:03.859Z,19.00
2018-03-20T06:13:38.048Z,17.75
2018-03-20T06:16:10.608Z,21.25
2018-03-20T06:18:42.433Z,23.75
2018-03-20T06:21:14.489Z,24.25
2018-03-20T06:23:46.616Z,20.25
2018-03-20T06:26:17.827Z,21.75
2018-03-20T06:28:49.463Z,23.00
2018-03-20T06:31:22.252Z,21.00
2018-03-20T06:33:55.702Z,20.00
2018-03-20T06:36:27.923Z,20.00
2018-03-20T06:38:59.509Z,21.00
2018-03-20T06:41:31.703Z,16.50
2018-03-20T06:44:03.173Z,20.50
2018-03-20T06:46:35.769Z,20.50
2018-03-20T06:49:08.168Z,17.50
2018-03-20T06:51:39.271Z,24.75
2018-03-20T06:54:12.281Z,21.00
2018-03-20T06:56:46.176Z,21.50
2018-03-20T06:59:19.333Z,22.75
2018-03-20T07:01:51.776Z,20.25
2018-03-20T07:04:23.595Z,21.25
2018-03-20T07:06:55.700Z,22.75
2018-03-20T07:09:28.352Z,29.25
2018-03-20T07:11:59.858Z,25.75
2018-03-20T07:14:31.379Z,22.75
2018-03-20T07:17:03.851Z,22.75
2018-03-20T07:19:36.905Z,26.00
2018-03-20T07:22:08.728Z,23.25
2018-03-20T07:24:47.209Z,20.75
2018-03-20T07:27:18.772Z,21.75
2018-03-20T07:29:50.649Z,23.50
2018-03-20T07:32:23.716Z,26.75
2018-03-20T07:34:57.125Z,26.25
2018-03-20T07:37:28.616Z,24.25
2018-03-20T07:39:59.968Z,29.25
2018-03-20T07:42:32.202Z,24.75
2018-03-20T07:45:08.361Z,24.25
2018-03-20T07:47:42.058Z,28.25
2018-03-20T07:50:15.316Z,24.75
2018-03-20T07:52:50.394Z,25.75
2018-03-20T07:55:21.583Z,28.25
2018-03-20T07:57:53.516Z,28.75
2018-03-20T08:00:29.273Z,25.75
2018-03-20T08:03:01.228Z,28.75
2018-03-20T08:05:32.417Z,23.75
2018-03-20T08:08:03.884Z,23.75
2018-03-20T08:10:35.188Z,25.50
2018-03-20T08:13:06.216Z,20.25
2018-03-20T08:15:39.532Z,25.75
2018-03-20T08:18:10.930Z,20.50
2018-03-20T08:20:43.437Z,26.75
2018-03-20T08:23:17.272Z,26.75
2018-03-20T08:25:48.963Z,25.25
2018-03-20T08:28:21.703Z,26.75
2018-03-20T08:30:54.472Z,29.25
2018-03-20T08:33:31.381Z,24.75
2018-03-20T08:36:02.561Z,27.25
2018-03-20T08:38:35.133Z,26.75
2018-03-20T08:41:07.682Z,27.25
2018-03-20T08:43:39.565Z,28.25
2018-03-20T08:46:11.150Z,25.50
2018-03-20T08:48:42.384Z,25.25
2018-03-20T08:54:14.714Z,20.50
2018-03-20T08:56:46.443Z,19.50
2018-03-20T08:59:18.174Z,36.00
2018-03-20T09:01:50.017Z,18.00
2018-03-20T09:04:22.452Z,20.50
2018-03-20T09:06:54.713Z,17.25
2018-03-20T09:09:26.080Z,12.75
2018-03-20T09:12:00.197Z,15.00
2018-03-20T09:14:32.056Z,11.75
2018-03-20T09:17:05.752Z,10.00
2018-03-20T09:19:39.980Z,9.00
2018-03-20T09:22:10.967Z,11.75
2018-03-20T09:24:42.977Z,10.50
2018-03-20T09:27:14.305Z,13.00
2018-03-20T09:29:45.439Z,10.25
2018-03-20T09:32:17.033Z,9.50
2018-03-20T09:34:56.158Z,11.00
2018-03-20T09:37:27.459Z,9.00
2018-03-20T09:40:04.409Z,12.00
2018-03-20T09:42:35.519Z,8.50
2018-03-20T09:45:08.932Z,10.00
2018-03-20T09:47:40.499Z,9.00
2018-03-20T09:50:14.361Z,9.00
2018-03-20T09:52:47.113Z,8.50
2018-03-20T09:55:20.757Z,6.00
2018-03-20T09:57:52.106Z,9.00
2018-03-20T10:00:24.748Z,6.75
2018-03-20T10:02:56.032Z,7.00
2018-03-20T10:05:28.326Z,7.25
2018-03-20T10:08:02.400Z,6.25
2018-03-20T10:10:35.136Z,6.00
2018-03-20T10:13:14.902Z,6.25
2018-03-20T10:15:47.858Z,6.50
2018-03-20T10:18:20.676Z,6.25
2018-03-20T10:20:53.765Z,8.00
2018-03-20T10:26:01.819Z,6.00
2018-03-20T10:28:36.653Z,6.00
2018-03-20T10:31:12.256Z,5.50
2018-03-20T10:33:46.193Z,3.50
2018-03-20T10:36:18.569Z,3.00
2018-03-20T10:38:50.280Z,3.00
2018-03-20T10:41:24.087Z,3.00
2018-03-20T10:43:56.736Z,4.00
2018-03-20T10:46:29.288Z,4.00
2018-03-20T10:49:03.289Z,3.00
2018-03-20T10:51:36.572Z,2.75
2018-03-20T10:54:08.755Z,2.75
2018-03-20T10:56:42.100Z,3.50
2018-03-20T10:59:13.131Z,4.00
2018-03-20T11:01:47.285Z,2.50
2018-03-20T11:04:19.067Z,1.25
2018-03-20T11:06:50.806Z,1.00
2018-03-20T11:09:23.508Z,0.00
2018-03-20T11:11:55.797Z,1.00
2018-03-20T11:14:30.899Z,1.00
2018-03-20T11:17:05.473Z,1.00
2018-03-20T11:19:47.892Z,2.00
2018-03-20T11:22:21.148Z,1.00
2018-03-20T11:24:52.933Z,2.00
2018-03-20T11:27:49.013Z,1.00
2018-03-20T11:30:26.025Z,1.00
2018-03-20T11:33:02.687Z,1.00
2018-03-20T11:35:53.526Z,1.00
2018-03-20T11:38:30.665Z,4.75
2018-03-20T11:41:03.835Z,1.00
2018-03-20T11:43:35.733Z,0.75
2018-03-20T11:46:08.150Z,0.00
2018-03-20T11:48:58.640Z,0.00
2018-03-20T11:51:30.979Z,1.00
2018-03-20T11:54:02.419Z,0.00
2018-03-20T11:59:03.452Z,1.75
2018-03-20T12:01:36.371Z,1.00
2018-03-20T12:04:08.646Z,1.00
2018-03-20T12:06:46.020Z,0.50
2018-03-20T12:09:26.342Z,0.00
2018-03-20T12:11:57.805Z,1.00
2018-03-20T12:14:32.617Z,0.00
2018-03-20T12:17:03.863Z,1.00
2018-03-20T12:19:37.717Z,0.00
2018-03-20T12:22:10.987Z,0.00
2018-03-20T12:24:43.040Z,0.00
2018-03-20T12:27:16.336Z,1.00
2018-03-20T12:29:49.374Z,0.00
2018-03-20T12:32:22.579Z,0.00
2018-03-20T12:34:54.948Z,0.00
2018-03-20T12:37:30.833Z,0.50
2018-03-20T12:40:03.091Z,0.00
2018-03-20T12:42:35.446Z,1.25
2018-03-20T12:45:13.566Z,0.50
2018-03-20T12:47:52.619Z,1.00
2018-03-20T12:50:24.805Z,0.00
2018-03-20T12:52:56.818Z,1.00
2018-03-20T12:55:31.228Z,0.00
2018-03-20T12:58:03.217Z,0.00
2018-03-20T13:00:34.709Z,1.00
2018-03-20T13:03:06.481Z,0.25
2018-03-20T13:05:38.741Z,0.00
2018-03-20T13:08:13.200Z,0.25
2018-03-20T13:11:00.115Z,0.00
2018-03-20T13:13:31.121Z,0.00
2018-03-20T13:16:03.310Z,0.00
2018-03-20T13:18:35.612Z,0.00
2018-03-20T13:21:09.497Z,0.50
2018-03-20T13:23:41.742Z,1.00
2018-03-20T13:26:14.850Z,0.00
2018-03-20T13:28:49.678Z,1.00
2018-03-20T13:31:22.815Z,0.00
2018-03-20T13:34:03.440Z,0.00
2018-03-20T13:36:36.864Z,0.00
2018-03-20T13:39:09.423Z,0.00
2018-03-20T13:41:44.032Z,0.00
2018-03-20T13:44:17.091Z,0.00
2018-03-20T13:46:50.818Z,0.00
2018-03-20T13:49:24.762Z,0.00
2018-03-20T13:52:03.503Z,0.00
2018-03-20T13:54:40.881Z,0.00
2018-03-20T13:57:17.192Z,0.00
2018-03-20T13:59:49.777Z,0.00
2018-03-20T14:02:25.645Z,0.00
2018-03-20T14:04:57.935Z,0.00
2018-03-20T14:07:41.240Z,0.00
2018-03-20T14:10:12.560Z,0.00
2018-03-20T14:12:45.771Z,0.00
2018-03-20T14:15:19.353Z,0.00
2018-03-20T14:17:52.934Z,0.00
2018-03-20T14:20:26.485Z,0.00
2018-03-20T14:23:05.863Z,0.00
2018-03-20T14:25:41.285Z,0.00
2018-03-20T14:28:13.825Z,1.00
2018-03-20T14:30:55.113Z,0.00
2018-03-20T14:33:30.626Z,0.00
2018-03-20T14:36:04.310Z,0.25
2018-03-20T14:38:36.570Z,0.00
2018-03-20T14:41:09.834Z,0.00
2018-03-20T14:43:51.101Z,0.00
2018-03-20T14:46:23.992Z,0.00
2018-03-20T14:48:56.571Z,0.00
2018-03-20T14:51:29.454Z,0.00
2018-03-20T14:54:01.374Z,0.00
2018-03-20T14:56:33.292Z,0.00
2018-03-20T14:59:05.499Z,0.00
2018-03-20T15:01:38.316Z,0.50
2018-03-20T15:04:11.363Z,0.50
2018-03-20T15:06:43.253Z,0.00
2018-03-20T15:09:15.385Z,0.75
2018-03-20T15:11:48.322Z,1.00
2018-03-20T15:14:22.946Z,0.00
2018-03-20T15:16:55.342Z,0.50
2018-03-20T15:19:32.277Z,0.00
2018-03-20T15:22:06.726Z,0.00
2018-03-20T15:24:41.984Z,0.75
2018-03-20T15:27:15.123Z,0.00
2018-03-20T15:29:46.760Z,0.00
2018-03-20T15:32:18.068Z,0.00
2018-03-20T15:34:49.877Z,0.00
2018-03-20T15:37:22.553Z,0.00
2018-03-20T15:39:57.737Z,0.00
2018-03-20T15:42:30.702Z,0.00
2018-03-20T15:45:13.255Z,0.75
2018-03-20T15:47:44.687Z,0.25
2018-03-20T15:50:17.316Z,0.25
2018-03-20T15:52:49.222Z,0.00
2018-03-20T15:55:21.148Z,0.00
2018-03-20T15:57:54.329Z,0.00
2018-03-20T16:00:31.735Z,0.00
2018-03-20T16:03:04.675Z,0.00
2018-03-20T16:05:37.341Z,0.00
2018-03-20T16:08:11.162Z,0.00
2018-03-20T16:10:43.396Z,0.00
2018-03-20T16:13:17.135Z,0.00
2018-03-20T16:15:51.588Z,0.00
2018-03-20T16:18:24.517Z,0.00
2018-03-20T16:20:55.939Z,0.00
2018-03-20T16:23:35.116Z,0.00
2018-03-20T16:26:09.736Z,0.00
2018-03-20T16:28:42.012Z,0.00
2018-03-20T16:31:16.195Z,0.00
2018-03-20T16:33:47.939Z,0.00
2018-03-20T16:36:23.618Z,0.00
2018-03-20T16:38:59.196Z,0.00
2018-03-20T16:41:36.277Z,0.00
2018-03-20T16:44:10.409Z,0.00
2018-03-20T16:46:44.558Z,0.00
2018-03-20T16:49:19.583Z,0.00
2018-03-20T16:51:54.004Z,0.00
2018-03-20T16:54:32.431Z,0.00
2018-03-20T16:57:06.434Z,0.00
2018-03-20T16:59:41.063Z,0.00
2018-03-20T17:02:20.807Z,0.00
2018-03-20T17:04:55.910Z,1.00
2018-03-20T17:07:29.620Z,0.75
2018-03-20T17:10:09.932Z,0.00
2018-03-20T17:12:44.250Z,0.00
2018-03-20T17:15:24.609Z,0.00
2018-03-20T17:17:57.289Z,0.00
2018-03-20T17:20:32.594Z,0.00
2018-03-20T17:23:12.378Z,1.00
2018-03-20T17:26:01.772Z,0.00
2018-03-20T17:28:39.515Z,0.00
2018-03-20T17:31:11.942Z,0.00
2018-03-20T17:33:46.700Z,0.00
2018-03-20T17:36:22.839Z,0.00
2018-03-20T17:39:06.926Z,0.00
2018-03-20T17:41:42.571Z,0.75
2018-03-20T17:44:20.005Z,0.00
2018-03-20T17:49:44.398Z,0.50
2018-03-20T17:52:24.282Z,0.00
2018-03-20T17:55:27.870Z,0.00
2018-03-20T18:02:12.573Z,0.00
2018-03-20T18:04:51.095Z,0.00
2018-03-20T18:07:26.204Z,0.00
2018-03-20T18:09:58.912Z,0.75
2018-03-20T18:12:33.256Z,0.00
2018-03-20T18:15:08.926Z,0.00
2018-03-20T18:17:41.347Z,0.00
2018-03-20T18:20:18.852Z,0.00
2018-03-20T18:22:53.694Z,0.25
2018-03-20T18:25:29.023Z,0.00
2018-03-20T18:28:05.145Z,1.00
2018-03-20T18:30:40.001Z,0.75
2018-03-20T18:33:17.012Z,1.00
2018-03-20T18:35:53.495Z,0.00
2018-03-20T18:38:28.855Z,0.00
2018-03-20T18:41:07.260Z,1.00
2018-03-20T18:43:47.817Z,0.00
2018-03-20T18:46:30.835Z,0.25
2018-03-20T18:49:10.336Z,1.00
2018-03-20T18:54:40.823Z,1.00
2018-03-20T18:57:17.107Z,1.00
2018-03-20T18:59:53.958Z,0.50
2018-03-20T19:02:33.596Z,1.00
2018-03-20T19:05:20.057Z,0.00
2018-03-20T19:07:57.262Z,0.50
2018-03-20T19:10:32.943Z,1.00
2018-03-20T19:13:06.648Z,1.00
2018-03-20T19:15:41.093Z,0.00
2018-03-20T19:18:20.105Z,0.75
2018-03-20T19:21:01.215Z,0.75
2018-03-20T19:23:35.261Z,1.00
2018-03-20T19:26:12.658Z,1.00
2018-03-20T19:31:32.841Z,0.00
2018-03-20T19:34:09.285Z,1.00
2018-03-20T19:36:46.211Z,1.00
2018-03-20T19:39:22.343Z,1.00
2018-03-20T19:41:55.835Z,1.00
2018-03-20T19:44:32.683Z,1.50
2018-03-20T19:47:11.011Z,1.00
2018-03-20T19:49:46.879Z,1.00
2018-03-20T19:52:22.494Z,1.00
2018-03-20T19:55:00.352Z,1.00
2018-03-20T19:57:35.609Z,1.00
2018-03-20T20:00:18.167Z,1.00
2018-03-20T20:02:54.950Z,2.50
2018-03-20T20:05:35.738Z,1.00
2018-03-20T20:08:10.539Z,1.00
2018-03-20T20:10:45.298Z,1.00
2018-03-20T20:13:20.883Z,1.00
2018-03-20T20:15:54.642Z,1.00
2018-03-20T20:18:27.818Z,1.00
2018-03-20T20:21:01.921Z,1.00
2018-03-20T20:23:36.910Z,1.00
2018-03-20T20:26:11.661Z,1.50
2018-03-20T20:28:46.910Z,1.00
2018-03-20T20:31:25.027Z,1.50
2018-03-20T20:34:00.491Z,1.00
2018-03-20T20:36:35.477Z,3.00
2018-03-20T20:39:10.384Z,1.00
2018-03-20T20:41:44.749Z,0.75
2018-03-20T20:44:18.481Z,1.00
2018-03-20T20:46:56.220Z,1.00
2018-03-20T20:49:32.034Z,1.00
2018-03-20T20:52:08.770Z,2.50
2018-03-20T20:54:44.590Z,3.00
2018-03-20T20:57:18.010Z,3.00
2018-03-20T20:59:52.759Z,3.00
2018-03-20T21:02:28.362Z,3.00
2018-03-20T21:05:00.481Z,3.00
2018-03-20T21:07:32.350Z,5.25
2018-03-20T21:10:05.636Z,1.00
2018-03-20T21:12:37.972Z,2.50
2018-03-20T21:26:07.422Z,1.00
2018-03-20T21:28:41.260Z,1.00
2018-03-20T21:31:15.984Z,1.00
2018-03-20T21:33:47.963Z,1.50
2018-03-20T21:36:22.535Z,1.50
2018-03-20T21:38:54.919Z,1.00
2018-03-20T21:41:29.870Z,1.50
2018-03-20T21:44:15.674Z,3.00
2018-03-20T21:46:48.618Z,1.00
2018-03-20T21:49:20.450Z,1.00
2018-03-20T21:51:51.856Z,3.00
2018-03-20T21:54:26.660Z,1.00
2018-03-20T21:56:59.825Z,1.00
2018-03-20T21:59:30.863Z,1.00
2018-03-20T22:02:03.571Z,1.00
2018-03-20T22:04:34.677Z,3.00
2018-03-20T22:07:09.127Z,3.00
2018-03-20T22:09:40.131Z,3.00
2018-03-20T22:12:11.465Z,3.00
2018-03-20T22:14:42.712Z,3.00
2018-03-20T22:17:14.564Z,3.00
2018-03-20T22:19:46.005Z,1.50
2018-03-20T22:22:17.496Z,3.00
2018-03-20T22:24:48.383Z,1.00
2018-03-20T22:27:20.667Z,3.00
2018-03-20T22:29:52.716Z,1.00
2018-03-20T22:35:02.980Z,1.00
2018-03-20T22:37:34.398Z,3.00
2018-03-20T22:40:06.679Z,3.00
2018-03-20T22:42:38.572Z,1.00
2018-03-20T22:45:10.259Z,1.00
2018-03-20T22:47:45.107Z,3.00
2018-03-20T22:50:17.494Z,2.50
2018-03-20T22:52:49.278Z,3.00
2018-03-20T22:55:22.969Z,1.00
2018-03-20T22:58:01.669Z,3.00
2018-03-20T23:00:34.783Z,2.00
2018-03-20T23:03:07.362Z,1.00
2018-03-20T23:05:39.769Z,2.50
2018-03-20T23:08:11.540Z,1.50
2018-03-20T23:10:43.114Z,2.00
2018-03-20T23:13:14.731Z,1.00
2018-03-20T23:15:47.521Z,1.00
2018-03-20T23:18:24.477Z,3.00
2018-03-20T23:20:56.570Z,2.00
2018-03-20T23:23:40.449Z,1.50
2018-03-20T23:26:12.292Z,2.50
2018-03-20T23:28:50.489Z,1.00
2018-03-20T23:31:22.672Z,1.00
2018-03-20T23:33:54.004Z,1.00
2018-03-20T23:36:26.348Z,3.50
2018-03-20T23:38:57.472Z,1.50
2018-03-20T23:41:31.571Z,1.50
2018-03-20T23:44:02.945Z,3.00
2018-03-20T23:46:34.543Z,2.50
2018-03-20T23:49:06.275Z,3.00
2018-03-20T23:51:38.642Z,3.00
2018-03-20T23:54:10.834Z,2.50
2018-03-20T23:56:43.211Z,1.00
2018-03-20T23:59:14.701Z,1.00
